sensor_id;sensor_type;location;lat;lon;timestamp;P1;durP1;ratioP1;P2;durP2;ratioP2
8797;SDS011;4435;50.898;4.734;2022-07-24T00:02:11;21.50;;;19.00;;
8797;SDS011;4435;50.898;4.734;2022-07-24T00:04:37;21.13;;;17.40;;
8797;SDS011;4435;50.898;4.734;2022-07-24T00:07:03;22.33;;;18.83;;
8797;SDS011;4435;50.898;4.734;2022-07-24T00:09:29;20.93;;;18.70;;
8797;SDS011;4435;50.898;4.734;2022-07-24T00:11:54;21.37;;;19.17;;
8797;SDS011;4435;50.898;4.734;2022-07-24T00:14:20;22.97;;;18.30;;
8797;SDS011;4435;50.898;4.734;2022-07-24T00:16:46;22.47;;;19.03;;
8797;SDS011;4435;50.898;4.734;2022-07-24T00:19:11;22.40;;;20.03;;
8797;SDS011;4435;50.898;4.734;2022-07-24T00:21:37;23.57;;;19.30;;
8797;SDS011;4435;50.898;4.734;2022-07-24T00:24:03;22.30;;;19.27;;
8797;SDS011;4435;50.898;4.734;2022-07-24T00:26:29;21.80;;;19.50;;
8797;SDS011;4435;50.898;4.734;2022-07-24T00:28:55;23.27;;;20.23;;
8797;SDS011;4435;50.898;4.734;2022-07-24T00:31:20;23.80;;;21.30;;
8797;SDS011;4435;50.898;4.734;2022-07-24T00:33:46;26.43;;;23.43;;
8797;SDS011;4435;50.898;4.734;2022-07-24T00:36:13;25.00;;;22.40;;
8797;SDS011;4435;50.898;4.734;2022-07-24T00:38:40;25.83;;;23.10;;
8797;SDS011;4435;50.898;4.734;2022-07-24T00:41:05;26.67;;;23.80;;
8797;SDS011;4435;50.898;4.734;2022-07-24T00:43:33;25.23;;;22.57;;
8797;SDS011;4435;50.898;4.734;2022-07-24T00:45:59;28.67;;;24.00;;
8797;SDS011;4435;50.898;4.734;2022-07-24T00:48:24;31.43;;;24.07;;
8797;SDS011;4435;50.898;4.734;2022-07-24T00:50:50;30.07;;;25.30;;
8797;SDS011;4435;50.898;4.734;2022-07-24T00:53:16;29.00;;;25.73;;
8797;SDS011;4435;50.898;4.734;2022-07-24T00:55:43;32.60;;;26.10;;
8797;SDS011;4435;50.898;4.734;2022-07-24T00:58:09;27.37;;;24.43;;
8797;SDS011;4435;50.898;4.734;2022-07-24T01:00:35;27.37;;;24.37;;
8797;SDS011;4435;50.898;4.734;2022-07-24T01:03:01;30.33;;;24.63;;
8797;SDS011;4435;50.898;4.734;2022-07-24T01:05:27;31.47;;;23.90;;
8797;SDS011;4435;50.898;4.734;2022-07-24T01:07:53;30.87;;;23.43;;
8797;SDS011;4435;50.898;4.734;2022-07-24T01:10:18;29.93;;;24.67;;
8797;SDS011;4435;50.898;4.734;2022-07-24T01:12:44;25.97;;;23.17;;
8797;SDS011;4435;50.898;4.734;2022-07-24T01:15:10;30.03;;;24.37;;
8797;SDS011;4435;50.898;4.734;2022-07-24T01:17:37;26.60;;;23.37;;
8797;SDS011;4435;50.898;4.734;2022-07-24T01:20:06;29.17;;;24.83;;
8797;SDS011;4435;50.898;4.734;2022-07-24T01:22:33;26.97;;;23.63;;
8797;SDS011;4435;50.898;4.734;2022-07-24T01:24:59;28.10;;;23.23;;
8797;SDS011;4435;50.898;4.734;2022-07-24T01:27:25;26.07;;;21.70;;
8797;SDS011;4435;50.898;4.734;2022-07-24T01:29:51;26.47;;;22.77;;
8797;SDS011;4435;50.898;4.734;2022-07-24T01:32:17;25.80;;;21.80;;
8797;SDS011;4435;50.898;4.734;2022-07-24T01:34:43;29.50;;;22.27;;
8797;SDS011;4435;50.898;4.734;2022-07-24T01:37:09;28.10;;;22.60;;
8797;SDS011;4435;50.898;4.734;2022-07-24T01:39:35;26.93;;;22.23;;
8797;SDS011;4435;50.898;4.734;2022-07-24T01:42:01;27.27;;;22.10;;
8797;SDS011;4435;50.898;4.734;2022-07-24T01:44:27;23.47;;;20.07;;
8797;SDS011;4435;50.898;4.734;2022-07-24T01:46:52;24.47;;;18.87;;
8797;SDS011;4435;50.898;4.734;2022-07-24T01:49:18;23.43;;;20.17;;
8797;SDS011;4435;50.898;4.734;2022-07-24T01:51:44;25.57;;;19.90;;
8797;SDS011;4435;50.898;4.734;2022-07-24T01:54:10;23.53;;;18.60;;
8797;SDS011;4435;50.898;4.734;2022-07-24T01:56:35;24.17;;;20.30;;
8797;SDS011;4435;50.898;4.734;2022-07-24T01:59:01;25.73;;;21.33;;
8797;SDS011;4435;50.898;4.734;2022-07-24T02:01:27;28.93;;;20.87;;
8797;SDS011;4435;50.898;4.734;2022-07-24T02:03:54;25.10;;;19.57;;
8797;SDS011;4435;50.898;4.734;2022-07-24T02:06:20;25.73;;;21.30;;
8797;SDS011;4435;50.898;4.734;2022-07-24T02:08:45;25.93;;;21.30;;
8797;SDS011;4435;50.898;4.734;2022-07-24T02:11:11;27.10;;;21.03;;
8797;SDS011;4435;50.898;4.734;2022-07-24T02:13:37;25.63;;;20.50;;
8797;SDS011;4435;50.898;4.734;2022-07-24T02:16:03;23.17;;;19.83;;
8797;SDS011;4435;50.898;4.734;2022-07-24T02:18:29;22.57;;;18.20;;
8797;SDS011;4435;50.898;4.734;2022-07-24T02:20:55;22.40;;;18.53;;
8797;SDS011;4435;50.898;4.734;2022-07-24T02:23:20;22.10;;;18.20;;
8797;SDS011;4435;50.898;4.734;2022-07-24T02:25:47;20.67;;;18.07;;
8797;SDS011;4435;50.898;4.734;2022-07-24T02:28:14;20.10;;;17.77;;
8797;SDS011;4435;50.898;4.734;2022-07-24T02:30:40;23.00;;;17.20;;
8797;SDS011;4435;50.898;4.734;2022-07-24T02:33:06;20.53;;;17.00;;
8797;SDS011;4435;50.898;4.734;2022-07-24T02:35:32;19.37;;;17.37;;
8797;SDS011;4435;50.898;4.734;2022-07-24T02:37:57;20.03;;;18.03;;
8797;SDS011;4435;50.898;4.734;2022-07-24T02:40:23;22.23;;;19.07;;
8797;SDS011;4435;50.898;4.734;2022-07-24T02:42:49;19.83;;;17.80;;
8797;SDS011;4435;50.898;4.734;2022-07-24T02:45:15;22.10;;;18.77;;
8797;SDS011;4435;50.898;4.734;2022-07-24T02:47:54;25.47;;;19.63;;
8797;SDS011;4435;50.898;4.734;2022-07-24T02:50:22;24.70;;;20.10;;
8797;SDS011;4435;50.898;4.734;2022-07-24T02:52:49;26.03;;;18.57;;
8797;SDS011;4435;50.898;4.734;2022-07-24T02:55:16;25.60;;;19.80;;
8797;SDS011;4435;50.898;4.734;2022-07-24T02:57:42;22.93;;;19.80;;
8797;SDS011;4435;50.898;4.734;2022-07-24T03:00:09;22.97;;;20.47;;
8797;SDS011;4435;50.898;4.734;2022-07-24T03:02:37;25.20;;;20.47;;
8797;SDS011;4435;50.898;4.734;2022-07-24T03:05:03;22.90;;;20.37;;
8797;SDS011;4435;50.898;4.734;2022-07-24T03:07:30;26.87;;;20.07;;
8797;SDS011;4435;50.898;4.734;2022-07-24T03:09:56;21.43;;;18.70;;
8797;SDS011;4435;50.898;4.734;2022-07-24T03:12:22;20.60;;;18.40;;
8797;SDS011;4435;50.898;4.734;2022-07-24T03:14:48;19.70;;;17.63;;
8797;SDS011;4435;50.898;4.734;2022-07-24T03:17:13;24.60;;;17.97;;
8797;SDS011;4435;50.898;4.734;2022-07-24T03:19:39;20.27;;;18.20;;
8797;SDS011;4435;50.898;4.734;2022-07-24T03:22:05;22.80;;;20.40;;
8797;SDS011;4435;50.898;4.734;2022-07-24T03:24:31;24.47;;;20.73;;
8797;SDS011;4435;50.898;4.734;2022-07-24T03:26:56;23.53;;;20.97;;
8797;SDS011;4435;50.898;4.734;2022-07-24T03:29:22;27.73;;;21.10;;
8797;SDS011;4435;50.898;4.734;2022-07-24T03:31:48;26.33;;;22.30;;
8797;SDS011;4435;50.898;4.734;2022-07-24T03:34:14;24.40;;;20.83;;
8797;SDS011;4435;50.898;4.734;2022-07-24T03:36:39;25.90;;;20.70;;
8797;SDS011;4435;50.898;4.734;2022-07-24T03:39:05;22.90;;;20.30;;
8797;SDS011;4435;50.898;4.734;2022-07-24T03:41:31;25.87;;;21.53;;
8797;SDS011;4435;50.898;4.734;2022-07-24T03:43:57;24.70;;;21.87;;
8797;SDS011;4435;50.898;4.734;2022-07-24T03:46:23;27.20;;;21.93;;
8797;SDS011;4435;50.898;4.734;2022-07-24T03:48:49;32.90;;;22.60;;
8797;SDS011;4435;50.898;4.734;2022-07-24T03:51:14;26.07;;;21.93;;
8797;SDS011;4435;50.898;4.734;2022-07-24T03:53:40;21.00;;;18.80;;
8797;SDS011;4435;50.898;4.734;2022-07-24T03:56:09;21.97;;;19.07;;
8797;SDS011;4435;50.898;4.734;2022-07-24T03:58:35;28.10;;;22.30;;
8797;SDS011;4435;50.898;4.734;2022-07-24T04:01:02;26.43;;;22.73;;
8797;SDS011;4435;50.898;4.734;2022-07-24T04:03:28;27.23;;;23.53;;
8797;SDS011;4435;50.898;4.734;2022-07-24T04:05:53;24.13;;;21.37;;
8797;SDS011;4435;50.898;4.734;2022-07-24T04:08:19;24.80;;;21.27;;
8797;SDS011;4435;50.898;4.734;2022-07-24T04:10:45;26.47;;;22.03;;
8797;SDS011;4435;50.898;4.734;2022-07-24T04:13:11;27.70;;;22.47;;
8797;SDS011;4435;50.898;4.734;2022-07-24T04:15:37;24.80;;;21.50;;
8797;SDS011;4435;50.898;4.734;2022-07-24T04:18:02;26.43;;;21.50;;
8797;SDS011;4435;50.898;4.734;2022-07-24T04:20:28;25.97;;;21.70;;
8797;SDS011;4435;50.898;4.734;2022-07-24T04:22:54;24.83;;;21.50;;
8797;SDS011;4435;50.898;4.734;2022-07-24T04:25:19;27.13;;;21.97;;
8797;SDS011;4435;50.898;4.734;2022-07-24T04:27:45;24.10;;;19.10;;
8797;SDS011;4435;50.898;4.734;2022-07-24T04:30:13;22.63;;;20.07;;
8797;SDS011;4435;50.898;4.734;2022-07-24T04:32:39;22.43;;;19.73;;
8797;SDS011;4435;50.898;4.734;2022-07-24T04:35:05;22.73;;;20.30;;
8797;SDS011;4435;50.898;4.734;2022-07-24T04:37:31;22.97;;;19.60;;
8797;SDS011;4435;50.898;4.734;2022-07-24T04:39:57;24.70;;;20.40;;
8797;SDS011;4435;50.898;4.734;2022-07-24T04:42:23;23.10;;;20.30;;
8797;SDS011;4435;50.898;4.734;2022-07-24T04:44:48;25.80;;;22.43;;
8797;SDS011;4435;50.898;4.734;2022-07-24T04:47:14;20.97;;;18.70;;
8797;SDS011;4435;50.898;4.734;2022-07-24T04:49:40;22.77;;;19.80;;
8797;SDS011;4435;50.898;4.734;2022-07-24T04:52:06;24.83;;;19.97;;
8797;SDS011;4435;50.898;4.734;2022-07-24T04:54:31;22.00;;;19.40;;
8797;SDS011;4435;50.898;4.734;2022-07-24T04:56:57;22.13;;;19.73;;
8797;SDS011;4435;50.898;4.734;2022-07-24T04:59:23;23.90;;;20.70;;
8797;SDS011;4435;50.898;4.734;2022-07-24T05:01:49;23.50;;;18.97;;
8797;SDS011;4435;50.898;4.734;2022-07-24T05:04:14;23.97;;;20.57;;
8797;SDS011;4435;50.898;4.734;2022-07-24T05:06:40;22.40;;;20.10;;
8797;SDS011;4435;50.898;4.734;2022-07-24T05:09:06;22.17;;;19.87;;
8797;SDS011;4435;50.898;4.734;2022-07-24T05:11:32;25.67;;;20.33;;
8797;SDS011;4435;50.898;4.734;2022-07-24T05:13:58;25.37;;;20.60;;
8797;SDS011;4435;50.898;4.734;2022-07-24T05:16:23;27.00;;;20.47;;
8797;SDS011;4435;50.898;4.734;2022-07-24T05:18:49;24.30;;;20.80;;
8797;SDS011;4435;50.898;4.734;2022-07-24T05:21:15;26.03;;;20.97;;
8797;SDS011;4435;50.898;4.734;2022-07-24T05:23:41;24.77;;;19.67;;
8797;SDS011;4435;50.898;4.734;2022-07-24T05:26:08;22.03;;;19.00;;
8797;SDS011;4435;50.898;4.734;2022-07-24T05:28:34;22.07;;;19.60;;
8797;SDS011;4435;50.898;4.734;2022-07-24T05:31:00;24.23;;;19.63;;
8797;SDS011;4435;50.898;4.734;2022-07-24T05:33:25;22.90;;;19.33;;
8797;SDS011;4435;50.898;4.734;2022-07-24T05:35:51;26.10;;;19.73;;
8797;SDS011;4435;50.898;4.734;2022-07-24T05:38:17;27.37;;;20.60;;
8797;SDS011;4435;50.898;4.734;2022-07-24T05:40:43;26.03;;;20.07;;
8797;SDS011;4435;50.898;4.734;2022-07-24T05:43:08;23.10;;;19.07;;
8797;SDS011;4435;50.898;4.734;2022-07-24T05:45:34;22.40;;;18.73;;
8797;SDS011;4435;50.898;4.734;2022-07-24T05:48:00;21.77;;;18.30;;
8797;SDS011;4435;50.898;4.734;2022-07-24T05:50:26;21.37;;;17.20;;
8797;SDS011;4435;50.898;4.734;2022-07-24T05:52:51;19.47;;;17.30;;
8797;SDS011;4435;50.898;4.734;2022-07-24T05:55:17;19.53;;;17.30;;
8797;SDS011;4435;50.898;4.734;2022-07-24T05:57:46;20.40;;;17.70;;
8797;SDS011;4435;50.898;4.734;2022-07-24T06:00:13;18.43;;;15.27;;
8797;SDS011;4435;50.898;4.734;2022-07-24T06:02:40;19.87;;;15.90;;
8797;SDS011;4435;50.898;4.734;2022-07-24T06:05:06;15.40;;;13.80;;
8797;SDS011;4435;50.898;4.734;2022-07-24T06:07:32;16.53;;;12.60;;
8797;SDS011;4435;50.898;4.734;2022-07-24T06:09:58;16.60;;;12.40;;
8797;SDS011;4435;50.898;4.734;2022-07-24T06:12:23;13.20;;;11.33;;
8797;SDS011;4435;50.898;4.734;2022-07-24T06:14:49;15.33;;;11.57;;
8797;SDS011;4435;50.898;4.734;2022-07-24T06:17:15;12.27;;;10.77;;
8797;SDS011;4435;50.898;4.734;2022-07-24T06:19:40;12.50;;;10.53;;
8797;SDS011;4435;50.898;4.734;2022-07-24T06:22:06;13.63;;;10.20;;
8797;SDS011;4435;50.898;4.734;2022-07-24T06:24:31;13.30;;;9.87;;
8797;SDS011;4435;50.898;4.734;2022-07-24T06:26:57;12.90;;;10.10;;
8797;SDS011;4435;50.898;4.734;2022-07-24T06:29:23;11.03;;;9.27;;
8797;SDS011;4435;50.898;4.734;2022-07-24T06:31:49;12.27;;;9.13;;
8797;SDS011;4435;50.898;4.734;2022-07-24T06:34:14;11.60;;;9.40;;
8797;SDS011;4435;50.898;4.734;2022-07-24T06:36:45;13.73;;;9.10;;
8797;SDS011;4435;50.898;4.734;2022-07-24T06:39:11;11.27;;;8.43;;
8797;SDS011;4435;50.898;4.734;2022-07-24T06:41:36;11.23;;;9.07;;
8797;SDS011;4435;50.898;4.734;2022-07-24T06:44:02;10.00;;;7.67;;
8797;SDS011;4435;50.898;4.734;2022-07-24T06:46:28;11.07;;;7.63;;
8797;SDS011;4435;50.898;4.734;2022-07-24T06:48:53;9.80;;;7.73;;
8797;SDS011;4435;50.898;4.734;2022-07-24T06:51:19;10.80;;;7.53;;
8797;SDS011;4435;50.898;4.734;2022-07-24T06:53:45;12.17;;;8.27;;
8797;SDS011;4435;50.898;4.734;2022-07-24T06:56:12;15.37;;;9.00;;
8797;SDS011;4435;50.898;4.734;2022-07-24T06:58:37;15.00;;;9.40;;
8797;SDS011;4435;50.898;4.734;2022-07-24T07:01:03;13.07;;;8.63;;
8797;SDS011;4435;50.898;4.734;2022-07-24T07:03:29;11.27;;;8.60;;
8797;SDS011;4435;50.898;4.734;2022-07-24T07:05:55;11.57;;;8.70;;
8797;SDS011;4435;50.898;4.734;2022-07-24T07:08:20;14.60;;;8.30;;
8797;SDS011;4435;50.898;4.734;2022-07-24T07:10:46;10.90;;;8.00;;
8797;SDS011;4435;50.898;4.734;2022-07-24T07:13:12;9.60;;;6.93;;
8797;SDS011;4435;50.898;4.734;2022-07-24T07:15:37;10.07;;;6.90;;
8797;SDS011;4435;50.898;4.734;2022-07-24T07:18:03;10.40;;;7.00;;
8797;SDS011;4435;50.898;4.734;2022-07-24T07:20:29;12.40;;;7.33;;
8797;SDS011;4435;50.898;4.734;2022-07-24T07:22:54;8.63;;;6.90;;
8797;SDS011;4435;50.898;4.734;2022-07-24T07:25:20;8.53;;;6.70;;
8797;SDS011;4435;50.898;4.734;2022-07-24T07:27:46;9.33;;;6.87;;
8797;SDS011;4435;50.898;4.734;2022-07-24T07:30:12;10.47;;;6.67;;
8797;SDS011;4435;50.898;4.734;2022-07-24T07:32:38;8.73;;;6.13;;
8797;SDS011;4435;50.898;4.734;2022-07-24T07:35:04;9.23;;;6.53;;
8797;SDS011;4435;50.898;4.734;2022-07-24T07:37:30;7.73;;;6.30;;
8797;SDS011;4435;50.898;4.734;2022-07-24T07:39:56;10.40;;;6.37;;
8797;SDS011;4435;50.898;4.734;2022-07-24T07:42:23;8.30;;;6.20;;
8797;SDS011;4435;50.898;4.734;2022-07-24T07:44:49;7.23;;;6.13;;
8797;SDS011;4435;50.898;4.734;2022-07-24T07:47:15;7.70;;;5.73;;
8797;SDS011;4435;50.898;4.734;2022-07-24T07:49:40;6.73;;;5.63;;
8797;SDS011;4435;50.898;4.734;2022-07-24T07:52:06;7.53;;;5.87;;
8797;SDS011;4435;50.898;4.734;2022-07-24T07:54:32;8.23;;;5.23;;
8797;SDS011;4435;50.898;4.734;2022-07-24T07:56:58;6.43;;;5.23;;
8797;SDS011;4435;50.898;4.734;2022-07-24T07:59:23;6.97;;;5.10;;
8797;SDS011;4435;50.898;4.734;2022-07-24T08:01:49;7.63;;;5.33;;
8797;SDS011;4435;50.898;4.734;2022-07-24T08:04:15;5.63;;;5.00;;
8797;SDS011;4435;50.898;4.734;2022-07-24T08:06:41;6.37;;;4.83;;
8797;SDS011;4435;50.898;4.734;2022-07-24T08:09:06;7.03;;;5.80;;
8797;SDS011;4435;50.898;4.734;2022-07-24T08:11:32;5.67;;;5.07;;
8797;SDS011;4435;50.898;4.734;2022-07-24T08:13:58;6.97;;;5.37;;
8797;SDS011;4435;50.898;4.734;2022-07-24T08:16:24;5.70;;;4.60;;
8797;SDS011;4435;50.898;4.734;2022-07-24T08:18:50;6.37;;;4.70;;
8797;SDS011;4435;50.898;4.734;2022-07-24T08:21:16;5.77;;;4.80;;
8797;SDS011;4435;50.898;4.734;2022-07-24T08:23:43;5.43;;;4.73;;
8797;SDS011;4435;50.898;4.734;2022-07-24T08:26:10;7.13;;;4.93;;
8797;SDS011;4435;50.898;4.734;2022-07-24T08:28:36;5.70;;;4.40;;
8797;SDS011;4435;50.898;4.734;2022-07-24T08:31:02;5.93;;;4.40;;
8797;SDS011;4435;50.898;4.734;2022-07-24T08:33:28;6.40;;;4.53;;
8797;SDS011;4435;50.898;4.734;2022-07-24T08:35:54;5.10;;;4.60;;
8797;SDS011;4435;50.898;4.734;2022-07-24T08:38:20;5.00;;;4.03;;
8797;SDS011;4435;50.898;4.734;2022-07-24T08:40:46;5.33;;;4.33;;
8797;SDS011;4435;50.898;4.734;2022-07-24T08:43:11;5.50;;;3.90;;
8797;SDS011;4435;50.898;4.734;2022-07-24T08:45:39;6.10;;;3.80;;
8797;SDS011;4435;50.898;4.734;2022-07-24T08:48:06;4.53;;;4.03;;
8797;SDS011;4435;50.898;4.734;2022-07-24T08:50:34;4.93;;;3.70;;
8797;SDS011;4435;50.898;4.734;2022-07-24T08:53:02;4.20;;;3.70;;
8797;SDS011;4435;50.898;4.734;2022-07-24T08:55:29;4.37;;;3.30;;
8797;SDS011;4435;50.898;4.734;2022-07-24T08:57:55;4.30;;;3.40;;
8797;SDS011;4435;50.898;4.734;2022-07-24T09:00:23;3.27;;;2.97;;
8797;SDS011;4435;50.898;4.734;2022-07-24T09:02:50;3.70;;;3.40;;
8797;SDS011;4435;50.898;4.734;2022-07-24T09:05:16;3.43;;;3.07;;
8797;SDS011;4435;50.898;4.734;2022-07-24T09:07:42;3.50;;;3.20;;
8797;SDS011;4435;50.898;4.734;2022-07-24T09:10:08;6.47;;;2.90;;
8797;SDS011;4435;50.898;4.734;2022-07-24T09:12:39;3.00;;;2.80;;
8797;SDS011;4435;50.898;4.734;2022-07-24T09:15:22;3.10;;;2.70;;
8797;SDS011;4435;50.898;4.734;2022-07-24T09:17:58;5.60;;;2.60;;
8797;SDS011;4435;50.898;4.734;2022-07-24T09:20:25;2.90;;;2.70;;
8797;SDS011;4435;50.898;4.734;2022-07-24T09:22:53;4.20;;;2.97;;
8797;SDS011;4435;50.898;4.734;2022-07-24T09:25:22;3.13;;;2.80;;
8797;SDS011;4435;50.898;4.734;2022-07-24T09:30:37;2.70;;;2.50;;
8797;SDS011;4435;50.898;4.734;2022-07-24T09:38:12;2.67;;;2.30;;
8797;SDS011;4435;50.898;4.734;2022-07-24T09:40:52;2.57;;;2.37;;
8797;SDS011;4435;50.898;4.734;2022-07-24T09:43:26;5.53;;;2.57;;
8797;SDS011;4435;50.898;4.734;2022-07-24T09:46:01;3.20;;;2.60;;
8797;SDS011;4435;50.898;4.734;2022-07-24T09:48:33;2.37;;;2.17;;
8797;SDS011;4435;50.898;4.734;2022-07-24T09:51:04;3.90;;;2.20;;
8797;SDS011;4435;50.898;4.734;2022-07-24T09:53:35;2.30;;;2.10;;
8797;SDS011;4435;50.898;4.734;2022-07-24T09:56:03;2.13;;;1.90;;
8797;SDS011;4435;50.898;4.734;2022-07-24T09:58:29;3.70;;;2.20;;
8797;SDS011;4435;50.898;4.734;2022-07-24T10:00:57;2.40;;;2.20;;
8797;SDS011;4435;50.898;4.734;2022-07-24T10:03:26;4.17;;;2.27;;
8797;SDS011;4435;50.898;4.734;2022-07-24T10:05:57;2.20;;;2.00;;
8797;SDS011;4435;50.898;4.734;2022-07-24T10:08:25;4.10;;;2.40;;
8797;SDS011;4435;50.898;4.734;2022-07-24T10:10:52;2.43;;;2.00;;
8797;SDS011;4435;50.898;4.734;2022-07-24T10:13:18;2.73;;;2.10;;
8797;SDS011;4435;50.898;4.734;2022-07-24T10:15:50;2.70;;;2.00;;
8797;SDS011;4435;50.898;4.734;2022-07-24T10:18:58;2.40;;;2.20;;
8797;SDS011;4435;50.898;4.734;2022-07-24T10:26:36;2.27;;;2.07;;
8797;SDS011;4435;50.898;4.734;2022-07-24T10:29:09;3.00;;;2.27;;
8797;SDS011;4435;50.898;4.734;2022-07-24T10:31:36;2.17;;;1.93;;
8797;SDS011;4435;50.898;4.734;2022-07-24T10:34:09;4.10;;;2.10;;
8797;SDS011;4435;50.898;4.734;2022-07-24T10:36:48;2.17;;;1.80;;
8797;SDS011;4435;50.898;4.734;2022-07-24T10:39:25;4.53;;;2.03;;
8797;SDS011;4435;50.898;4.734;2022-07-24T10:41:59;2.33;;;2.13;;
8797;SDS011;4435;50.898;4.734;2022-07-24T10:44:30;2.30;;;2.10;;
8797;SDS011;4435;50.898;4.734;2022-07-24T10:49:51;2.23;;;2.00;;
8797;SDS011;4435;50.898;4.734;2022-07-24T10:52:23;3.03;;;2.10;;
8797;SDS011;4435;50.898;4.734;2022-07-24T10:57:46;2.83;;;2.00;;
8797;SDS011;4435;50.898;4.734;2022-07-24T11:00:22;2.43;;;2.10;;
8797;SDS011;4435;50.898;4.734;2022-07-24T11:02:59;2.33;;;2.13;;
8797;SDS011;4435;50.898;4.734;2022-07-24T11:08:24;2.27;;;2.03;;
8797;SDS011;4435;50.898;4.734;2022-07-24T11:10:57;2.03;;;1.83;;
8797;SDS011;4435;50.898;4.734;2022-07-24T11:21:07;1.80;;;1.70;;
8797;SDS011;4435;50.898;4.734;2022-07-24T11:23:34;2.47;;;1.90;;
8797;SDS011;4435;50.898;4.734;2022-07-24T11:32:04;1.90;;;1.70;;
8797;SDS011;4435;50.898;4.734;2022-07-24T11:34:33;1.97;;;1.60;;
8797;SDS011;4435;50.898;4.734;2022-07-24T11:37:00;2.13;;;1.80;;
8797;SDS011;4435;50.898;4.734;2022-07-24T11:39:27;4.27;;;1.97;;
8797;SDS011;4435;50.898;4.734;2022-07-24T11:41:56;1.93;;;1.70;;
8797;SDS011;4435;50.898;4.734;2022-07-24T11:44:24;1.90;;;1.50;;
8797;SDS011;4435;50.898;4.734;2022-07-24T11:46:54;1.80;;;1.70;;
8797;SDS011;4435;50.898;4.734;2022-07-24T11:49:23;1.77;;;1.63;;
8797;SDS011;4435;50.898;4.734;2022-07-24T11:51:50;1.67;;;1.50;;
8797;SDS011;4435;50.898;4.734;2022-07-24T11:54:21;1.83;;;1.63;;
8797;SDS011;4435;50.898;4.734;2022-07-24T11:56:50;1.93;;;1.77;;
8797;SDS011;4435;50.898;4.734;2022-07-24T11:59:23;2.70;;;1.80;;
8797;SDS011;4435;50.898;4.734;2022-07-24T12:02:03;1.80;;;1.70;;
8797;SDS011;4435;50.898;4.734;2022-07-24T12:04:31;2.67;;;1.77;;
8797;SDS011;4435;50.898;4.734;2022-07-24T12:06:57;1.80;;;1.70;;
8797;SDS011;4435;50.898;4.734;2022-07-24T12:09:23;3.67;;;2.07;;
8797;SDS011;4435;50.898;4.734;2022-07-24T12:11:49;2.30;;;1.70;;
8797;SDS011;4435;50.898;4.734;2022-07-24T12:14:19;3.40;;;1.80;;
8797;SDS011;4435;50.898;4.734;2022-07-24T12:16:55;1.83;;;1.73;;
8797;SDS011;4435;50.898;4.734;2022-07-24T12:19:21;2.10;;;1.90;;
8797;SDS011;4435;50.898;4.734;2022-07-24T12:21:49;2.07;;;1.90;;
8797;SDS011;4435;50.898;4.734;2022-07-24T12:24:16;1.93;;;1.80;;
8797;SDS011;4435;50.898;4.734;2022-07-24T12:26:50;3.90;;;2.30;;
8797;SDS011;4435;50.898;4.734;2022-07-24T12:29:24;2.60;;;1.93;;
8797;SDS011;4435;50.898;4.734;2022-07-24T12:34:47;3.00;;;2.27;;
8797;SDS011;4435;50.898;4.734;2022-07-24T12:37:18;3.37;;;2.37;;
8797;SDS011;4435;50.898;4.734;2022-07-24T12:39:49;5.10;;;2.30;;
8797;SDS011;4435;50.898;4.734;2022-07-24T12:42:16;2.40;;;2.13;;
8797;SDS011;4435;50.898;4.734;2022-07-24T12:44:43;4.00;;;2.30;;
8797;SDS011;4435;50.898;4.734;2022-07-24T12:47:10;2.87;;;2.40;;
8797;SDS011;4435;50.898;4.734;2022-07-24T12:49:41;5.43;;;2.43;;
8797;SDS011;4435;50.898;4.734;2022-07-24T12:52:22;2.60;;;2.33;;
8797;SDS011;4435;50.898;4.734;2022-07-24T12:54:49;2.60;;;2.40;;
8797;SDS011;4435;50.898;4.734;2022-07-24T12:57:16;3.60;;;2.57;;
8797;SDS011;4435;50.898;4.734;2022-07-24T12:59:47;7.70;;;2.90;;
8797;SDS011;4435;50.898;4.734;2022-07-24T13:02:23;3.30;;;2.60;;
8797;SDS011;4435;50.898;4.734;2022-07-24T13:04:50;5.50;;;3.10;;
8797;SDS011;4435;50.898;4.734;2022-07-24T13:07:20;3.40;;;3.00;;
8797;SDS011;4435;50.898;4.734;2022-07-24T13:09:47;3.30;;;3.00;;
8797;SDS011;4435;50.898;4.734;2022-07-24T13:12:13;3.83;;;2.90;;
8797;SDS011;4435;50.898;4.734;2022-07-24T13:14:39;4.40;;;3.17;;
8797;SDS011;4435;50.898;4.734;2022-07-24T13:17:06;4.97;;;3.03;;
8797;SDS011;4435;50.898;4.734;2022-07-24T13:19:45;3.97;;;2.93;;
8797;SDS011;4435;50.898;4.734;2022-07-24T13:22:12;3.33;;;3.03;;
8797;SDS011;4435;50.898;4.734;2022-07-24T13:24:39;3.10;;;2.80;;
8797;SDS011;4435;50.898;4.734;2022-07-24T13:27:07;5.47;;;3.23;;
8797;SDS011;4435;50.898;4.734;2022-07-24T13:29:34;3.63;;;2.93;;
8797;SDS011;4435;50.898;4.734;2022-07-24T13:32:01;2.93;;;2.70;;
8797;SDS011;4435;50.898;4.734;2022-07-24T13:34:28;3.33;;;3.03;;
8797;SDS011;4435;50.898;4.734;2022-07-24T13:36:54;3.53;;;2.87;;
8797;SDS011;4435;50.898;4.734;2022-07-24T13:39:20;4.20;;;3.27;;
8797;SDS011;4435;50.898;4.734;2022-07-24T13:41:47;3.10;;;2.90;;
8797;SDS011;4435;50.898;4.734;2022-07-24T13:44:13;2.93;;;2.60;;
8797;SDS011;4435;50.898;4.734;2022-07-24T13:46:39;3.13;;;2.80;;
8797;SDS011;4435;50.898;4.734;2022-07-24T13:49:05;3.23;;;2.93;;
8797;SDS011;4435;50.898;4.734;2022-07-24T13:51:32;4.40;;;3.13;;
8797;SDS011;4435;50.898;4.734;2022-07-24T13:53:59;4.63;;;3.20;;
8797;SDS011;4435;50.898;4.734;2022-07-24T13:56:25;5.40;;;2.90;;
8797;SDS011;4435;50.898;4.734;2022-07-24T13:58:51;3.60;;;2.90;;
8797;SDS011;4435;50.898;4.734;2022-07-24T14:01:17;3.27;;;2.70;;
8797;SDS011;4435;50.898;4.734;2022-07-24T14:03:44;4.97;;;2.77;;
8797;SDS011;4435;50.898;4.734;2022-07-24T14:06:11;3.20;;;2.70;;
8797;SDS011;4435;50.898;4.734;2022-07-24T14:08:37;3.17;;;2.87;;
8797;SDS011;4435;50.898;4.734;2022-07-24T14:11:04;6.43;;;3.03;;
8797;SDS011;4435;50.898;4.734;2022-07-24T14:13:30;4.03;;;2.63;;
8797;SDS011;4435;50.898;4.734;2022-07-24T14:15:56;4.40;;;2.70;;
8797;SDS011;4435;50.898;4.734;2022-07-24T14:18:23;3.13;;;2.70;;
8797;SDS011;4435;50.898;4.734;2022-07-24T14:20:49;4.07;;;3.20;;
8797;SDS011;4435;50.898;4.734;2022-07-24T14:23:15;5.63;;;2.90;;
8797;SDS011;4435;50.898;4.734;2022-07-24T14:25:42;3.53;;;2.90;;
8797;SDS011;4435;50.898;4.734;2022-07-24T14:28:08;4.00;;;2.90;;
8797;SDS011;4435;50.898;4.734;2022-07-24T14:30:34;3.47;;;2.97;;
8797;SDS011;4435;50.898;4.734;2022-07-24T14:33:00;3.53;;;3.00;;
8797;SDS011;4435;50.898;4.734;2022-07-24T14:35:25;3.53;;;3.13;;
8797;SDS011;4435;50.898;4.734;2022-07-24T14:37:52;3.90;;;3.10;;
8797;SDS011;4435;50.898;4.734;2022-07-24T14:40:18;3.77;;;3.00;;
8797;SDS011;4435;50.898;4.734;2022-07-24T14:42:44;3.30;;;3.00;;
8797;SDS011;4435;50.898;4.734;2022-07-24T14:45:09;3.80;;;3.10;;
8797;SDS011;4435;50.898;4.734;2022-07-24T14:47:35;4.63;;;3.17;;
8797;SDS011;4435;50.898;4.734;2022-07-24T14:50:04;4.67;;;3.33;;
8797;SDS011;4435;50.898;4.734;2022-07-24T14:52:31;3.67;;;3.30;;
8797;SDS011;4435;50.898;4.734;2022-07-24T14:54:57;5.53;;;3.60;;
8797;SDS011;4435;50.898;4.734;2022-07-24T14:57:24;3.60;;;3.30;;
8797;SDS011;4435;50.898;4.734;2022-07-24T14:59:50;6.47;;;3.00;;
8797;SDS011;4435;50.898;4.734;2022-07-24T15:02:16;3.47;;;3.17;;
8797;SDS011;4435;50.898;4.734;2022-07-24T15:04:41;4.47;;;3.67;;
8797;SDS011;4435;50.898;4.734;2022-07-24T15:07:07;6.27;;;3.40;;
8797;SDS011;4435;50.898;4.734;2022-07-24T15:09:33;3.90;;;3.47;;
8797;SDS011;4435;50.898;4.734;2022-07-24T15:11:59;4.03;;;3.63;;
8797;SDS011;4435;50.898;4.734;2022-07-24T15:14:25;5.13;;;3.37;;
8797;SDS011;4435;50.898;4.734;2022-07-24T15:16:51;5.53;;;3.30;;
8797;SDS011;4435;50.898;4.734;2022-07-24T15:19:16;5.97;;;5.37;;
8797;SDS011;4435;50.898;4.734;2022-07-24T15:21:43;3.40;;;3.10;;
8797;SDS011;4435;50.898;4.734;2022-07-24T15:24:08;4.50;;;3.07;;
8797;SDS011;4435;50.898;4.734;2022-07-24T15:26:35;3.30;;;3.00;;
8797;SDS011;4435;50.898;4.734;2022-07-24T15:29:01;4.20;;;3.00;;
8797;SDS011;4435;50.898;4.734;2022-07-24T15:31:27;5.80;;;4.27;;
8797;SDS011;4435;50.898;4.734;2022-07-24T15:33:53;3.80;;;3.40;;
8797;SDS011;4435;50.898;4.734;2022-07-24T15:36:18;4.33;;;3.53;;
8797;SDS011;4435;50.898;4.734;2022-07-24T15:38:44;3.73;;;3.30;;
8797;SDS011;4435;50.898;4.734;2022-07-24T15:41:10;3.30;;;3.00;;